Time;durP1;ratioP1;P1;durP2;ratioP2;P2;SDS_P1;SDS_P2;PMS_P1;PMS_P2;Temp;Humidity;BMP_temperature;BMP_pressure;BME280_temperature;BME280_humidity;BME280_pressure;Samples;Min_cycle;Max_cycle;Signal;HPM_P1;HPM_P2
2022/11/06 00:00:12;;;;;;;1.83;1.77;;;5.10;99.90;;;;;;5074438;28;20115;-71
2022/11/06 00:02:38;;;;;;;1.65;1.55;;;5.70;99.90;;;;;;5074783;28;20038;-72
2022/11/06 00:07:49;;;;;;;2.25;2.08;;;;;;;;;;5089607;28;20115;-71
2022/11/06 00:10:16;;;;;;;1.08;1.08;;;5.30;99.90;;;;;;5093115;28;20081;-71
2022/11/06 00:12:42;;;;;;;2.50;2.40;;;5.70;99.90;;;;;;5072820;28;20465;-71
2022/11/06 00:15:08;;;;;;;1.63;1.52;;;5.70;99.90;;;;;;5072693;28;20480;-72
2022/11/06 00:17:33;;;;;;;1.70;1.60;;;5.30;99.90;;;;;;5054355;28;20036;-71
2022/11/06 00:20:00;;;;;;;1.27;0.93;;;;;;;;;;5062013;28;20024;-72
2022/11/06 00:22:25;;;;;;;1.67;1.58;;;5.40;99.90;;;;;;5065261;28;20119;-70
2022/11/06 00:24:52;;;;;;;2.00;1.90;;;5.40;99.90;;;;;;5074071;28;20131;-71
2022/11/06 00:27:18;;;;;;;0.85;0.85;;;5.00;99.90;;;;;;5092414;28;20399;-70
2022/11/06 00:29:43;;;;;;;2.53;2.40;;;5.50;99.90;;;;;;5075582;28;20045;-70
2022/11/06 00:32:09;;;;;;;4.50;2.87;;;;;;;;;;5053439;28;20028;-72
2022/11/06 00:34:35;;;;;;;2.57;1.50;;;5.20;99.90;;;;;;5074257;28;20087;-71
2022/11/06 00:37:00;;;;;;;4.13;3.83;;;5.10;99.90;;;;;;5092150;28;20028;-71
2022/11/06 00:39:26;;;;;;;5.90;3.40;;;5.20;99.90;;;;;;5092020;28;20077;-71
2022/11/06 00:41:52;;;;;;;2.83;2.63;;;;;;;;;;5092212;28;20089;-72
2022/11/06 00:44:17;;;;;;;1.40;1.37;;;5.50;99.90;;;;;;5081489;28;20039;-71
2022/11/06 00:46:43;;;;;;;2.57;2.43;;;5.40;99.90;;;;;;5053716;28;20029;-70
2022/11/06 00:49:09;;;;;;;0.60;0.60;;;5.00;99.90;;;;;;5071745;28;20051;-69
2022/11/06 00:51:38;;;;;;;2.40;2.23;;;5.50;99.90;;;;;;5088697;28;20044;-72
2022/11/06 00:54:06;;;;;;;1.25;1.20;;;5.50;99.90;;;;;;5091880;28;20066;-71
2022/11/06 00:56:32;;;;;;;1.90;1.80;;;5.30;99.90;;;;;;5073408;28;20119;-71
2022/11/06 00:59:00;;;;;;;3.50;3.15;;;5.40;99.90;;;;;;5085469;28;20099;-71
2022/11/06 01:01:29;;;;;;;2.10;1.90;;;5.10;99.90;;;;;;5051958;28;20399;-71
2022/11/06 01:03:57;;;;;;;1.45;1.35;;;5.60;99.90;;;;;;5071045;28;20080;-71
2022/11/06 01:06:25;;;;;;;0.82;0.82;;;5.40;99.90;;;;;;5084066;28;20119;-71
2022/11/06 01:08:51;;;;;;;1.33;1.23;;;;;;;;;;5091384;28;20032;-71
2022/11/06 01:11:27;;;;;;;1.85;1.75;;;4.70;99.90;;;;;;5073111;28;20074;-71
2022/11/06 01:13:55;;;;;;;2.30;2.15;;;5.40;99.90;;;;;;5088211;28;20456;-71
2022/11/06 01:16:22;;;;;;;0.57;0.57;;;5.40;99.90;;;;;;5071076;28;20533;-71
2022/11/06 01:18:48;;;;;;;1.95;1.50;;;5.50;99.90;;;;;;5071005;28;20020;-71
2022/11/06 01:21:20;;;;;;;2.10;1.92;;;5.80;99.90;;;;;;5062814;28;20123;-72
2022/11/06 01:23:46;;;;;;;1.00;1.00;;;5.10;99.90;;;;;;5091405;28;20056;-71
2022/11/06 01:26:13;;;;;;;2.25;2.15;;;5.50;99.90;;;;;;5091793;28;20020;-71
2022/11/06 01:28:39;;;;;;;;;;;5.40;99.90;;;;;;5073171;28;20086;-70
2022/11/06 01:31:17;;;;;;;0.88;0.88;;;5.60;99.90;;;;;;5072095;28;19944;-70
2022/11/06 01:33:43;;;;;;;0.52;0.52;;;5.50;99.90;;;;;;5070897;28;20032;-71
2022/11/06 01:36:13;;;;;;;0.80;0.80;;;5.40;99.90;;;;;;5077541;28;20048;-70
2022/11/06 01:38:40;;;;;;;2.58;1.88;;;5.40;99.90;;;;;;5089568;28;20097;-71
2022/11/06 01:41:06;;;;;;;1.70;1.60;;;;;;;;;;5089844;28;20074;-71
2022/11/06 01:43:55;;;;;;;1.08;1.08;;;5.40;99.90;;;;;;5056277;28;20028;-71
2022/11/06 01:46:23;;;;;;;2.17;2.05;;;5.50;99.90;;;;;;5071307;28;20105;-71
2022/11/06 01:48:55;;;;;;;5.38;3.08;;;5.60;99.90;;;;;;5070535;28;20017;-72
2022/11/06 01:51:23;;;;;;;3.65;3.38;;;5.40;99.90;;;;;;5077285;28;20387;-71
2022/11/06 01:53:50;;;;;;;1.52;1.42;;;5.30;99.90;;;;;;5091061;28;20105;-71
2022/11/06 01:56:16;;;;;;;2.05;1.92;;;5.20;99.90;;;;;;5090872;28;20081;-71
2022/11/06 01:58:45;;;;;;;0.73;0.73;;;4.90;99.90;;;;;;5091007;28;20362;-71
2022/11/06 02:01:11;;;;;;;5.72;3.17;;;5.10;99.90;;;;;;5089521;28;20059;-70
2022/11/06 02:03:38;;;;;;;0.97;0.97;;;5.50;99.90;;;;;;5090705;28;20059;-71
2022/11/06 02:06:06;;;;;;;1.55;1.48;;;5.30;99.90;;;;;;5087715;28;20040;-71
2022/11/06 02:08:33;;;;;;;1.15;1.15;;;5.40;99.90;;;;;;5052313;28;20031;-72
2022/11/06 02:10:59;;;;;;;0.75;0.75;;;5.40;99.90;;;;;;5071022;28;20516;-71
2022/11/06 02:14:05;;;;;;;1.37;1.37;;;5.40;99.90;;;;;;5070677;28;20040;-71
2022/11/06 02:17:03;;;;;;;1.70;1.60;;;5.30;99.90;;;;;;5086769;28;20032;-71
2022/11/06 02:20:01;;;;;;;1.15;1.10;;;5.40;99.90;;;;;;5090527;28;20035;-70
2022/11/06 02:22:59;;;;;;;0.98;0.98;;;5.30;99.90;;;;;;5060294;28;20064;-71
2022/11/06 02:25:51;;;;;;;0.40;0.40;;;5.40;99.90;;;;;;5070651;28;20115;-71
2022/11/06 02:28:36;;;;;;;0.90;0.90;;;5.30;99.90;;;;;;5054912;28;20070;-71
2022/11/06 02:31:10;;;;;;;1.33;1.33;;;5.50;99.90;;;;;;5085076;28;20036;-72
2022/11/06 02:33:43;;;;;;;0.40;0.40;;;5.50;99.90;;;;;;5076080;28;20032;-71
2022/11/06 02:36:15;;;;;;;0.50;0.50;;;5.40;99.90;;;;;;5094991;28;20043;-71
2022/11/06 02:38:44;;;;;;;0.75;0.75;;;5.30;99.90;;;;;;5074446;28;20113;-72
2022/11/06 02:41:16;;;;;;;1.13;1.13;;;5.30;99.90;;;;;;5074596;28;20029;-71
2022/11/06 02:43:51;;;;;;;0.95;0.95;;;5.30;99.90;;;;;;5056018;28;20036;-72
2022/11/06 02:46:36;;;;;;;1.50;1.38;;;5.30;99.90;;;;;;5066202;28;20024;-70
2022/11/06 02:49:08;;;;;;;1.10;1.10;;;5.30;99.90;;;;;;5076049;28;20016;-71
2022/11/06 02:51:38;;;;;;;0.40;0.40;;;5.70;99.90;;;;;;5075438;28;20032;-70
2022/11/06 02:54:05;;;;;;;1.02;1.02;;;5.30;99.90;;;;;;5073928;28;20029;-72
2022/11/06 02:56:38;;;;;;;3.00;2.80;;;5.30;99.90;;;;;;5073857;28;20074;-71
2022/11/06 02:59:27;;;;;;;2.53;2.33;;;5.30;99.90;;;;;;5073760;28;20028;-71
2022/11/06 03:02:19;;;;;;;3.47;2.65;;;5.50;99.90;;;;;;5068767;28;20032;-72
2022/11/06 03:05:01;;;;;;;1.17;1.17;;;5.30;99.90;;;;;;5094040;28;20036;-71
2022/11/06 03:07:36;;;;;;;0.73;0.73;;;5.10;99.90;;;;;;5069828;28;20132;-71
2022/11/06 03:10:02;;;;;;;2.40;2.30;;;5.00;99.90;;;;;;5073779;28;20039;-71
2022/11/06 03:12:32;;;;;;;0.45;0.45;;;4.90;99.90;;;;;;5073441;28;20107;-71
2022/11/06 03:15:09;;;;;;;0.52;0.52;;;5.30;99.90;;;;;;5073706;28;20424;-71
2022/11/06 03:17:57;;;;;;;1.77;1.67;;;5.40;99.90;;;;;;5090522;28;20040;-70
2022/11/06 03:20:40;;;;;;;1.73;1.63;;;5.30;99.90;;;;;;5094052;28;20024;-71
2022/11/06 03:23:23;;;;;;;1.73;1.63;;;5.50;99.90;;;;;;5084022;28;20033;-70
2022/11/06 03:26:03;;;;;;;2.45;2.35;;;5.10;99.90;;;;;;5055417;28;20115;-72
2022/11/06 03:28:37;;;;;;;2.63;2.47;;;5.50;99.90;;;;;;5072912;28;20086;-71
2022/11/06 03:31:08;;;;;;;2.15;1.98;;;5.40;99.90;;;;;;5075908;28;20050;-70
2022/11/06 03:34:00;;;;;;;3.65;3.40;;;5.60;99.90;;;;;;5075260;28;20370;-71
2022/11/06 03:36:33;;;;;;;0.80;0.80;;;5.40;99.90;;;;;;5075026;28;20038;-72
2022/11/06 03:39:07;;;;;;;1.05;0.98;;;5.60;99.90;;;;;;5078277;28;20025;-73
2022/11/06 03:41:42;;;;;;;1.08;1.08;;;5.10;99.90;;;;;;5073302;28;20029;-70
2022/11/06 03:44:13;;;;;;;1.42;1.33;;;5.50;99.90;;;;;;5073035;28;20357;-70
2022/11/06 03:46:45;;;;;;;1.05;1.05;;;6.10;99.90;;;;;;5078321;28;20028;-71
2022/11/06 03:49:16;;;;;;;1.50;1.40;;;5.50;99.90;;;;;;5093068;28;20032;-72
2022/11/06 03:52:00;;;;;;;2.00;1.90;;;4.90;99.90;;;;;;5093064;28;20032;-72
2022/11/06 03:54:33;;;;;;;0.95;0.95;;;5.50;99.90;;;;;;5076483;28;20048;-71
2022/11/06 03:57:05;;;;;;;0.82;0.82;;;5.10;99.90;;;;;;5072611;28;20037;-70
2022/11/06 03:59:36;;;;;;;1.10;1.10;;;5.40;99.90;;;;;;5072533;28;20025;-71
2022/11/06 04:02:02;;;;;;;1.13;1.13;;;;;;;;;;5060933;28;20123;-71
2022/11/06 04:04:42;;;;;;;1.70;1.60;;;5.50;99.90;;;;;;5092821;28;20443;-72
2022/11/06 04:07:12;;;;;;;0.45;0.45;;;5.40;99.90;;;;;;5092728;28;20393;-70
2022/11/06 04:15:17;;;;;;;0.90;0.90;;;4.90;99.90;;;;;;5072904;28;20044;-71
2022/11/06 04:17:43;;;;;;;2.75;2.55;;;5.20;99.90;;;;;;5082366;28;20023;-71
2022/11/06 04:21:20;;;;;;;1.77;1.65;;;5.30;99.90;;;;;;5092863;28;20520;-70
2022/11/06 04:23:10;;;;;;;3.80;3.40;;;5.40;99.90;;;;;;5091722;28;20044;-71
2022/11/06 04:28:47;;;;;;;6.97;1.38;;;5.20;99.90;;;;;;5071940;28;20047;-71
2022/11/06 04:31:33;;;;;;;0.85;0.85;;;5.40;99.90;;;;;;5071811;28;20040;-70
2022/11/06 04:33:59;;;;;;;2.28;2.10;;;5.00;99.90;;;;;;5090721;28;20488;-71
2022/11/06 04:36:48;;;;;;;1.97;1.87;;;5.10;99.90;;;;;;5092098;28;20137;-71
2022/11/06 04:40:01;;;;;;;6.38;3.55;;;4.90;99.90;;;;;;5082962;28;20460;-70
2022/11/06 04:42:39;;;;;;;2.00;1.90;;;5.00;99.90;;;;;;5072040;28;20114;-71
2022/11/06 04:45:13;;;;;;;0.60;0.60;;;5.10;99.90;;;;;;5071949;28;20025;-71
2022/11/06 04:47:39;;;;;;;1.63;1.10;;;;;;;;;;5072441;28;20048;-70
2022/11/06 04:50:07;;;;;;;1.88;1.77;;;5.30;99.90;;;;;;5053144;28;20111;-70
2022/11/06 04:52:34;;;;;;;2.25;2.10;;;5.20;99.90;;;;;;5053457;28;20057;-71
2022/11/06 04:55:00;;;;;;;0.90;0.90;;;;;;;;;;5072804;28;20066;-70
2022/11/06 04:57:26;;;;;;;1.02;1.02;;;;;;;;;;5071443;28;20025;-71
2022/11/06 04:59:52;;;;;;;0.47;0.47;;;;;;;;;;5053558;28;20082;-72
2022/11/06 05:02:18;;;;;;;1.48;1.40;;;;;;;;;;5053490;28;20300;-72
2022/11/06 05:04:44;;;;;;;1.90;1.77;;;5.10;99.90;;;;;;5070272;28;20063;-71
2022/11/06 05:07:13;;;;;;;1.50;1.43;;;5.00;99.90;;;;;;5071195;28;20040;-71
2022/11/06 05:09:39;;;;;;;2.83;2.60;;;;;;;;;;5044901;28;20032;-71
2022/11/06 05:12:05;;;;;;;1.27;1.27;;;;;;;;;;5066480;28;20491;-70
2022/11/06 05:14:32;;;;;;;0.73;0.73;;;5.30;99.90;;;;;;5066272;28;20337;-71
2022/11/06 05:16:58;;;;;;;1.65;1.55;;;;;;;;;;5070909;28;20037;-70
2022/11/06 05:19:24;;;;;;;2.92;1.58;;;5.20;99.90;;;;;;5071180;28;20052;-70
2022/11/06 05:24:34;;;;;;;4.00;3.53;;;4.90;99.90;;;;;;5059993;28;20094;-71
2022/11/06 05:27:00;;;;;;;1.43;1.37;;;;;;;;;;5050940;28;20053;-71
2022/11/06 05:29:26;;;;;;;2.20;2.08;;;4.80;99.90;;;;;;5065973;28;20395;-72
2022/11/06 05:31:52;;;;;;;2.38;2.25;;;5.10;99.90;;;;;;5050941;28;20373;-71
2022/11/06 05:34:17;;;;;;;2.00;1.90;;;4.70;99.90;;;;;;5055258;28;20153;-71
2022/11/06 05:36:43;;;;;;;3.40;3.10;;;;;;;;;;5070686;28;20343;-71
2022/11/06 05:39:09;;;;;;;0.97;0.97;;;5.20;99.90;;;;;;5054994;28;20105;-72
2022/11/06 05:41:35;;;;;;;1.80;1.70;;;;;;;;;;5050780;28;20036;-71
2022/11/06 05:44:00;;;;;;;1.85;1.75;;;5.10;99.90;;;;;;5063617;28;20467;-70
2022/11/06 05:46:26;;;;;;;0.67;0.67;;;5.80;99.90;;;;;;5071007;28;20131;-71
2022/11/06 05:48:52;;;;;;;0.77;0.77;;;5.20;99.90;;;;;;5070519;28;20123;-70
2022/11/06 05:51:18;;;;;;;2.50;2.23;;;5.30;99.90;;;;;;5052538;28;20041;-72
2022/11/06 05:53:44;;;;;;;1.58;1.48;;;;;;;;;;5060451;28;20124;-72
2022/11/06 05:56:10;;;;;;;0.77;0.77;;;4.80;99.90;;;;;;5066029;28;20037;-70
2022/11/06 05:58:36;;;;;;;0.83;0.83;;;;;;;;;;5050528;28;20025;-71
2022/11/06 06:01:03;;;;;;;1.65;1.58;;;4.90;99.90;;;;;;5065824;28;20035;-71
2022/11/06 06:03:28;;;;;;;3.08;1.85;;;5.00;99.90;;;;;;5050834;28;20037;-71
2022/11/06 06:05:54;;;;;;;1.93;1.83;;;5.30;99.90;;;;;;5050697;28;20482;-71
2022/11/06 06:08:19;;;;;;;2.27;2.03;;;5.30;99.90;;;;;;5051262;28;20033;-70
2022/11/06 06:10:46;;;;;;;1.03;1.03;;;5.00;99.90;;;;;;5050648;28;20025;-71
2022/11/06 06:13:12;;;;;;;;;;;7.40;99.90;;;;;;5050583;28;20029;-71
2022/11/06 06:15:39;;;;;;;6.70;6.10;;;6.60;99.90;;;;;;5050601;28;19916;-71
2022/11/06 06:18:05;;;;;;;3.33;2.67;;;5.20;99.90;;;;;;5063214;28;20431;-70
2022/11/06 06:20:31;;;;;;;0.98;0.98;;;5.00;99.90;;;;;;5070595;28;20024;-71
2022/11/06 06:22:58;;;;;;;1.60;1.50;;;5.10;99.90;;;;;;5069819;28;20040;-71
2022/11/06 06:25:24;;;;;;;1.65;1.58;;;4.80;99.90;;;;;;5050475;28;20426;-71
2022/11/06 06:27:50;;;;;;;1.65;1.55;;;;;;;;;;5050390;28;20040;-71
2022/11/06 06:30:16;;;;;;;1.45;1.40;;;;;;;;;;5050250;28;20503;-71
2022/11/06 06:32:42;;;;;;;0.90;0.90;;;4.60;99.90;;;;;;5060495;28;20041;-71
2022/11/06 06:35:08;;;;;;;1.23;1.23;;;;;;;;;;5050275;28;20041;-72
2022/11/06 06:37:34;;;;;;;1.77;1.50;;;5.20;99.90;;;;;;5050203;28;20029;-71
2022/11/06 06:40:00;;;;;;;1.80;1.70;;;5.10;99.90;;;;;;5064806;28;20483;-71
2022/11/06 06:42:27;;;;;;;1.53;1.43;;;5.20;99.90;;;;;;5052104;28;20037;-71
2022/11/06 06:44:53;;;;;;;5.85;2.08;;;5.00;99.90;;;;;;5070161;28;20040;-71
2022/11/06 06:47:18;;;;;;;1.23;1.23;;;5.30;99.90;;;;;;5067157;28;20040;-72
2022/11/06 06:49:44;;;;;;;1.43;1.43;;;5.10;99.90;;;;;;5049949;28;20048;-70
2022/11/06 06:52:10;;;;;;;0.60;0.60;;;5.00;99.90;;;;;;5050283;28;20029;-71
2022/11/06 06:54:36;;;;;;;1.98;1.88;;;;;;;;;;5032254;28;20033;-72
2022/11/06 06:57:04;;;;;;;0.70;0.70;;;4.70;99.90;;;;;;5050142;28;20372;-71
2022/11/06 06:59:30;;;;;;;0.98;0.98;;;4.90;99.90;;;;;;5050199;28;20471;-71
2022/11/06 07:01:56;;;;;;;1.75;1.65;;;4.90;99.90;;;;;;5049881;28;20033;-71
2022/11/06 07:04:22;;;;;;;1.88;1.77;;;4.70;99.90;;;;;;5067373;28;20063;-71
2022/11/06 07:06:48;;;;;;;0.40;0.40;;;4.90;99.90;;;;;;5069609;28;20071;-71
2022/11/06 07:09:13;;;;;;;3.47;3.20;;;5.10;99.90;;;;;;5065348;28;20043;-71
2022/11/06 07:11:39;;;;;;;0.50;0.50;;;;;;;;;;5049588;28;20432;-71
2022/11/06 07:14:05;;;;;;;1.27;1.27;;;;;;;;;;5052150;28;20064;-70
2022/11/06 07:16:31;;;;;;;4.43;2.70;;;;;;;;;;5053445;28;20365;-71
2022/11/06 07:18:57;;;;;;;1.38;1.38;;;5.00;99.90;;;;;;5065496;28;20066;-70
2022/11/06 07:21:25;;;;;;;1.20;1.20;;;4.80;99.90;;;;;;5073279;28;20025;-72
2022/11/06 07:23:51;;;;;;;0.85;0.85;;;;;;;;;;5073641;28;20028;-72
2022/11/06 07:26:17;;;;;;;1.75;1.65;;;;;;;;;;5053734;28;20048;-71
2022/11/06 07:28:43;;;;;;;1.17;1.13;;;5.10;99.90;;;;;;5053173;28;20021;-71
2022/11/06 07:31:11;;;;;;;0.63;0.63;;;;;;;;;;5053318;28;20269;-71
2022/11/06 07:33:37;;;;;;;3.10;2.90;;;4.70;99.90;;;;;;5060270;28;20044;-71
2022/11/06 07:36:09;;;;;;;1.17;1.17;;;4.90;99.90;;;;;;5073052;28;20067;-71
2022/11/06 07:38:36;;;;;;;0.95;0.95;;;4.40;99.90;;;;;;5073094;28;20362;-70
2022/11/06 07:41:03;;;;;;;1.58;1.48;;;4.90;99.90;;;;;;5039531;28;20029;-71
2022/11/06 07:43:29;;;;;;;0.75;0.75;;;5.70;99.90;;;;;;5052839;28;20107;-72
2022/11/06 07:45:59;;;;;;;2.57;2.37;;;5.20;99.90;;;;;;5053040;28;20037;-72
2022/11/06 07:48:25;;;;;;;2.28;2.08;;;4.80;99.90;;;;;;5056304;28;20037;-70
2022/11/06 07:50:50;;;;;;;1.57;1.50;;;5.20;99.90;;;;;;5054890;28;20102;-72
2022/11/06 07:53:16;;;;;;;0.83;0.83;;;5.00;99.90;;;;;;5072673;28;20071;-71
2022/11/06 07:55:49;;;;;;;1.43;1.33;;;5.10;99.90;;;;;;5062244;28;20039;-70
2022/11/06 07:58:15;;;;;;;1.70;1.60;;;5.10;99.90;;;;;;5052440;28;20040;-71
2022/11/06 08:00:46;;;;;;;1.65;1.55;;;5.00;99.90;;;;;;5052500;28;20036;-71
2022/11/06 08:03:11;;;;;;;1.00;1.00;;;;;;;;;;5034417;28;20037;-71
2022/11/06 08:05:37;;;;;;;1.27;1.23;;;;;;;;;;5053578;28;20571;-71
2022/11/06 08:08:03;;;;;;;0.50;0.50;;;;;;;;;;5067780;28;20667;-71
2022/11/06 08:10:29;;;;;;;1.55;1.05;;;;;;;;;;5053233;28;20041;-71
2022/11/06 08:12:55;;;;;;;1.00;1.00;;;4.90;99.90;;;;;;5062154;28;20085;-71
2022/11/06 08:15:21;;;;;;;2.83;2.33;;;;;;;;;;5054375;28;20032;-72
2022/11/06 08:17:46;;;;;;;0.80;0.80;;;5.00;99.90;;;;;;5072172;28;20066;-71
2022/11/06 08:20:12;;;;;;;0.83;0.83;;;4.80;99.90;;;;;;5057828;28;20368;-71
2022/11/06 08:22:38;;;;;;;2.30;2.10;;;5.20;99.90;;;;;;5052218;28;20392;-70
2022/11/06 08:25:03;;;;;;;1.13;1.13;;;5.20;99.90;;;;;;5052879;28;20040;-70
2022/11/06 08:27:29;;;;;;;1.83;1.73;;;5.30;99.90;;;;;;5074075;28;20044;-70
2022/11/06 08:29:55;;;;;;;3.10;2.37;;;;;;;;;;5092315;28;20079;-70
2022/11/06 08:32:21;;;;;;;7.20;3.00;;;;;;;;;;5092223;28;20089;-71
2022/11/06 08:34:47;;;;;;;0.47;0.47;;;;;;;;;;5064927;28;20760;-71
2022/11/06 08:37:13;;;;;;;3.80;3.50;;;5.30;99.90;;;;;;5071862;28;20492;-71
2022/11/06 08:39:38;;;;;;;3.47;3.17;;;5.20;99.90;;;;;;5071678;28;20296;-71
2022/11/06 08:42:04;;;;;;;0.40;0.40;;;6.30;99.90;;;;;;5087080;28;20040;-71
2022/11/06 08:44:30;;;;;;;0.52;0.52;;;;;;;;;;5092070;28;20557;-70
2022/11/06 08:46:56;;;;;;;0.97;0.97;;;5.10;99.90;;;;;;5092126;28;20111;-70
2022/11/06 08:49:22;;;;;;;2.67;2.47;;;;;;;;;;5088539;28;20478;-70
2022/11/06 08:51:48;;;;;;;1.03;1.03;;;;;;;;;;5071610;28;20487;-70
2022/11/06 08:54:13;;;;;;;2.87;2.67;;;5.70;99.90;;;;;;5071948;28;20028;-71
2022/11/06 08:56:39;;;;;;;0.70;0.70;;;5.80;99.90;;;;;;5081409;28;20044;-71
2022/11/06 08:59:05;;;;;;;1.23;1.20;;;;;;;;;;5073645;28;20032;-71
2022/11/06 09:01:31;;;;;;;2.90;2.47;;;;;;;;;;5091922;28;20085;-71
2022/11/06 09:03:57;;;;;;;1.02;1.02;;;;;;;;;;5091942;28;20036;-71
2022/11/06 09:06:22;;;;;;;5.83;2.47;;;5.60;99.90;;;;;;5073405;28;20039;-71
2022/11/06 09:08:48;;;;;;;1.63;1.53;;;5.40;99.90;;;;;;5053379;28;20055;-71
2022/11/06 09:11:14;;;;;;;2.77;2.60;;;;;;;;;;5054412;28;20481;-71
2022/11/06 09:13:39;;;;;;;7.00;2.10;;;5.70;99.90;;;;;;5075267;28;20039;-71
2022/11/06 09:16:05;;;;;;;1.57;1.47;;;5.70;99.90;;;;;;5072500;28;20756;-71
2022/11/06 09:18:31;;;;;;;1.80;1.70;;;;;;;;;;5071263;28;20032;-71
2022/11/06 09:20:57;;;;;;;1.17;1.17;;;5.40;99.90;;;;;;5083402;28;20039;-71
2022/11/06 09:23:23;;;;;;;1.63;1.53;;;5.80;99.90;;;;;;5091430;28;20040;-71
2022/11/06 09:25:49;;;;;;;1.98;1.65;;;5.70;99.90;;;;;;5073085;28;20040;-71
2022/11/06 09:28:15;;;;;;;4.07;3.73;;;5.80;99.90;;;;;;5053428;28;20472;-70
2022/11/06 09:30:41;;;;;;;1.95;1.85;;;6.00;99.90;;;;;;5070645;28;20076;-70
2022/11/06 09:33:07;;;;;;;1.00;0.97;;;;;;;;;;5052765;28;20075;-72
2022/11/06 09:35:34;;;;;;;1.38;1.33;;;5.90;99.90;;;;;;5077591;28;20039;-71
2022/11/06 09:38:04;;;;;;;2.88;1.52;;;6.00;99.90;;;;;;5090944;28;20056;-71
2022/11/06 09:40:34;;;;;;;6.00;2.83;;;5.50;99.90;;;;;;5072763;28;20472;-71
2022/11/06 09:43:24;;;;;;;1.95;1.70;;;5.50;99.90;;;;;;5075524;28;20032;-71
2022/11/06 09:45:51;;;;;;;1.45;1.40;;;5.80;99.90;;;;;;5070684;28;20448;-71
2022/11/06 09:48:33;;;;;;;1.35;1.30;;;6.20;99.90;;;;;;5070454;28;20032;-71
2022/11/06 09:51:26;;;;;;;2.25;2.08;;;5.60;99.90;;;;;;5078834;28;20283;-71
2022/11/06 09:53:59;;;;;;;0.55;0.55;;;6.50;99.90;;;;;;5077179;28;20466;-71
2022/11/06 09:56:31;;;;;;;0.60;0.60;;;5.70;99.90;;;;;;5090302;28;20032;-72
2022/11/06 09:58:58;;;;;;;2.55;2.35;;;5.90;99.90;;;;;;5055354;28;20468;-71
2022/11/06 10:01:33;;;;;;;1.08;1.08;;;6.10;99.90;;;;;;5070454;28;20032;-71
2022/11/06 10:04:00;;;;;;;2.20;2.10;;;5.70;99.90;;;;;;5070288;28;20028;-71
2022/11/06 10:06:27;;;;;;;2.55;2.35;;;5.60;99.90;;;;;;5080323;28;20036;-71
2022/11/06 10:08:58;;;;;;;1.73;1.63;;;5.90;99.90;;;;;;5072003;28;20031;-71
2022/11/06 10:11:39;;;;;;;5.22;3.38;;;5.90;99.90;;;;;;5090201;28;20487;-71
2022/11/06 10:14:21;;;;;;;1.65;1.55;;;5.90;99.90;;;;;;5089462;28;20090;-71
2022/11/06 10:16:50;;;;;;;1.58;1.48;;;6.00;99.90;;;;;;5090884;28;20028;-71
2022/11/06 10:19:15;;;;;;;27.63;3.70;;;6.00;99.90;;;;;;5090342;28;20027;-71
2022/11/06 10:21:45;;;;;;;2.60;2.43;;;6.20;99.90;;;;;;5079870;28;20116;-70
2022/11/06 10:24:22;;;;;;;2.25;2.05;;;6.20;99.90;;;;;;5070130;28;20029;-72
2022/11/06 10:26:53;;;;;;;2.03;1.77;;;6.00;99.90;;;;;;5052297;28;20491;-72
2022/11/06 10:29:24;;;;;;;2.15;1.92;;;5.60;99.90;;;;;;5070508;28;20040;-71
2022/11/06 10:32:07;;;;;;;1.38;1.35;;;6.00;99.90;;;;;;5051909;28;20035;-70
2022/11/06 10:34:44;;;;;;;0.93;0.93;;;6.40;99.90;;;;;;5051928;28;20028;-71
2022/11/06 10:37:24;;;;;;;1.42;0.95;;;6.10;99.90;;;;;;5049876;28;20025;-71
2022/11/06 10:39:49;;;;;;;3.00;2.70;;;5.80;99.90;;;;;;5050661;28;20031;-70
2022/11/06 10:42:29;;;;;;;3.30;2.33;;;6.40;99.90;;;;;;5051030;28;20029;-72
2022/11/06 10:45:02;;;;;;;0.77;0.77;;;6.10;99.90;;;;;;5090708;28;20032;-72
2022/11/06 10:47:36;;;;;;;2.63;1.58;;;5.80;99.90;;;;;;5090396;28;20437;-71
2022/11/06 10:50:07;;;;;;;1.42;1.38;;;5.70;99.90;;;;;;5093868;28;20028;-71
2022/11/06 10:52:47;;;;;;;0.60;0.60;;;5.90;99.90;;;;;;5092408;28;20028;-71
2022/11/06 10:55:54;;;;;;;2.05;1.95;;;6.00;99.90;;;;;;5094286;28;20023;-71
2022/11/06 10:58:28;;;;;;;1.42;1.35;;;5.90;99.90;;;;;;5092415;28;20034;-71
2022/11/06 11:00:58;;;;;;;1.48;1.45;;;6.20;99.90;;;;;;5093758;28;20057;-72
2022/11/06 11:03:31;;;;;;;0.93;0.85;;;5.90;99.90;;;;;;5075622;28;20031;-72
2022/11/06 11:05:57;;;;;;;1.92;1.80;;;6.20;99.90;;;;;;5093821;28;20035;-71
2022/11/06 11:08:46;;;;;;;1.57;1.47;;;6.40;99.90;;;;;;5073801;28;20031;-70
2022/11/06 11:11:14;;;;;;;1.65;1.55;;;6.10;99.90;;;;;;5093762;28;20770;-72
2022/11/06 11:13:41;;;;;;;0.73;0.73;;;6.30;99.90;;;;;;5073432;28;20328;-71
2022/11/06 11:16:21;;;;;;;1.30;1.25;;;6.60;99.90;;;;;;5093343;28;20038;-72
2022/11/06 11:18:48;;;;;;;1.23;1.20;;;6.00;99.90;;;;;;5093832;28;20031;-72
2022/11/06 11:21:26;;;;;;;;;;;7.60;99.90;;;;;;5094259;28;20027;-71
2022/11/06 11:24:21;;;;;;;1.02;1.02;;;5.90;99.90;;;;;;5055343;28;19999;-71
2022/11/06 11:26:51;;;;;;;0.98;0.98;;;6.30;99.90;;;;;;5056157;28;20036;-71
2022/11/06 11:29:28;;;;;;;1.70;1.60;;;6.20;99.90;;;;;;5083952;28;20071;-71
2022/11/06 11:32:01;;;;;;;6.15;4.50;;;6.00;99.90;;;;;;5074858;28;20040;-71
2022/11/06 11:34:29;;;;;;;2.83;2.55;;;6.00;99.90;;;;;;5093732;28;20020;-70
2022/11/06 11:36:59;;;;;;;2.58;2.22;;;5.90;99.90;;;;;;5091119;28;20024;-71
2022/11/06 11:39:32;;;;;;;1.23;1.13;;;6.10;99.90;;;;;;5073275;28;20086;-71
2022/11/06 11:42:16;;;;;;;1.15;1.15;;;5.60;99.90;;;;;;5054847;28;20116;-71
2022/11/06 11:44:42;;;;;;;3.53;1.75;;;6.00;99.90;;;;;;5067453;28;20035;-70
2022/11/06 11:47:23;;;;;;;1.33;0.83;;;5.80;99.90;;;;;;5074876;28;20036;-72
2022/11/06 11:49:48;;;;;;;2.00;1.90;;;5.70;99.90;;;;;;5074871;28;20075;-70
2022/11/06 11:52:18;;;;;;;1.33;1.27;;;5.90;99.90;;;;;;5089950;28;20028;-72
2022/11/06 11:54:52;;;;;;;4.20;3.63;;;5.90;99.90;;;;;;5072802;28;20025;-72
2022/11/06 11:57:22;;;;;;;1.77;1.40;;;5.50;99.90;;;;;;5072575;28;20035;-71
2022/11/06 12:00:00;;;;;;;0.98;0.95;;;5.70;99.90;;;;;;5062889;28;20024;-71
2022/11/06 12:02:41;;;;;;;1.70;1.60;;;6.10;99.90;;;;;;5056668;28;20503;-71
2022/11/06 12:05:09;;;;;;;2.15;2.05;;;6.00;99.90;;;;;;5073090;28;20035;-70
2022/11/06 12:07:40;;;;;;;1.33;1.30;;;5.80;99.90;;;;;;5057936;28;20093;-72
2022/11/06 12:10:35;;;;;;;0.60;0.60;;;5.90;99.90;;;;;;5093171;28;20028;-72
2022/11/06 12:13:17;;;;;;;2.05;1.95;;;5.70;99.90;;;;;;5074170;28;20063;-70
2022/11/06 12:16:00;;;;;;;1.23;1.20;;;5.50;99.90;;;;;;5056560;28;20124;-71
2022/11/06 12:18:40;;;;;;;3.72;3.38;;;5.30;99.90;;;;;;5072322;28;20024;-71
2022/11/06 12:21:12;;;;;;;2.00;1.88;;;5.60;99.90;;;;;;5072295;28;20521;-72
2022/11/06 12:24:10;;;;;;;4.18;3.38;;;6.00;99.90;;;;;;5082709;28;20072;-72
2022/11/06 12:26:57;;;;;;;0.77;0.77;;;5.50;99.90;;;;;;5092286;28;20031;-72
2022/11/06 12:29:33;;;;;;;2.28;2.08;;;5.70;99.90;;;;;;5087745;28;20522;-71
2022/11/06 12:32:35;;;;;;;2.03;1.90;;;5.50;99.90;;;;;;5054062;28;20071;-71
2022/11/06 12:35:22;;;;;;;5.40;3.28;;;5.80;99.90;;;;;;5054155;28;20024;-71
2022/11/06 12:38:10;;;;;;;0.88;0.88;;;6.00;99.90;;;;;;5073381;28;20391;-71
2022/11/06 12:40:54;;;;;;;1.63;1.52;;;6.00;99.90;;;;;;5073970;28;20038;-71
2022/11/06 12:43:47;;;;;;;3.70;2.15;;;5.70;99.90;;;;;;5092327;28;20072;-71
2022/11/06 12:46:28;;;;;;;4.65;2.15;;;6.00;99.90;;;;;;5055872;28;20043;-71
2022/11/06 12:48:59;;;;;;;1.65;1.55;;;5.60;99.90;;;;;;5053801;28;20098;-71
2022/11/06 12:51:37;;;;;;;2.70;1.48;;;6.10;99.90;;;;;;5071791;28;20487;-72
2022/11/06 12:54:24;;;;;;;1.70;1.63;;;5.60;99.90;;;;;;5054138;28;20024;-71
2022/11/06 12:57:14;;;;;;;2.40;2.20;;;5.60;99.90;;;;;;5071723;28;20025;-71
2022/11/06 13:00:04;;;;;;;1.75;1.65;;;5.90;99.90;;;;;;5074375;28;20028;-72
2022/11/06 13:02:56;;;;;;;3.65;3.40;;;6.00;99.90;;;;;;5091831;28;20029;-71
2022/11/06 13:05:28;;;;;;;1.77;1.67;;;5.70;99.90;;;;;;5091823;28;20028;-71
2022/11/06 13:08:31;;;;;;;3.22;3.00;;;5.70;99.90;;;;;;5073275;28;20119;-71
2022/11/06 13:11:06;;;;;;;1.77;1.67;;;5.70;99.90;;;;;;5051176;28;20456;-71
2022/11/06 13:13:56;;;;;;;0.93;0.93;;;5.40;99.90;;;;;;5033347;28;20029;-70
2022/11/06 13:16:33;;;;;;;0.30;0.30;;;6.30;99.90;;;;;;5049717;28;20380;-72
2022/11/06 13:19:11;;;;;;;;;;;5.80;99.90;;;;;;5072015;28;20464;-70
2022/11/06 13:21:49;;;;;;;0.70;0.70;;;5.70;99.90;;;;;;5086815;28;20275;-70
2022/11/06 13:24:32;;;;;;;1.55;1.45;;;5.80;99.90;;;;;;5078914;28;20375;-71
2022/11/06 13:27:02;;;;;;;1.33;1.27;;;5.80;99.90;;;;;;5091393;28;20024;-71
2022/11/06 13:29:28;;;;;;;1.92;1.83;;;5.80;99.90;;;;;;5091433;28;20344;-72
2022/11/06 13:32:03;;;;;;;3.15;2.92;;;5.80;99.90;;;;;;5073336;28;20071;-72
2022/11/06 13:34:36;;;;;;;1.13;1.13;;;5.80;99.90;;;;;;5071528;28;20025;-72
2022/11/06 13:37:23;;;;;;;1.60;1.50;;;5.50;99.90;;;;;;5053076;28;20576;-71
2022/11/06 13:40:25;;;;;;;2.60;2.47;;;5.90;99.90;;;;;;5081371;28;20130;-72
2022/11/06 13:43:10;;;;;;;1.83;1.73;;;5.70;99.90;;;;;;5091263;28;20535;-70
2022/11/06 13:46:00;;;;;;;1.65;1.55;;;5.60;99.90;;;;;;5086194;28;20384;-71
2022/11/06 13:48:33;;;;;;;1.20;1.20;;;5.50;99.90;;;;;;5059441;28;20037;-71
2022/11/06 13:51:07;;;;;;;1.13;1.10;;;5.30;99.90;;;;;;5076629;28;20035;-71